createdAt,value
2023-02-25T00:00:36.530Z,49.32
2023-02-25T00:01:36.538Z,49.44
2023-02-25T00:02:36.577Z,48.97
2023-02-25T00:03:36.623Z,48.80
2023-02-25T00:04:36.516Z,49.67
2023-02-25T00:05:36.542Z,49.69
2023-02-25T00:06:36.545Z,49.17
2023-02-25T00:07:36.481Z,48.33
2023-02-25T00:08:36.510Z,49.37
2023-02-25T00:09:36.466Z,49.33
2023-02-25T00:10:36.448Z,49.53
2023-02-25T00:11:36.480Z,49.65
2023-02-25T00:12:36.442Z,49.71
2023-02-25T00:13:36.436Z,49.36
2023-02-25T00:14:36.444Z,49.28
2023-02-25T00:15:36.421Z,49.08
2023-02-25T00:16:36.467Z,49.35
2023-02-25T00:17:36.408Z,49.63
2023-02-25T00:18:36.405Z,49.68
2023-02-25T00:19:36.395Z,49.30
2023-02-25T00:20:36.404Z,48.80
2023-02-25T00:21:36.381Z,49.41
2023-02-25T00:22:36.414Z,48.81
2023-02-25T00:23:36.370Z,48.59
2023-02-25T00:24:36.354Z,49.06
2023-02-25T00:25:36.351Z,49.72
2023-02-25T00:26:36.345Z,49.59
2023-02-25T00:27:36.440Z,49.64
2023-02-25T00:28:36.349Z,49.98
2023-02-25T00:29:36.333Z,49.63
2023-02-25T00:30:36.471Z,49.09
2023-02-25T00:31:36.388Z,49.39
2023-02-25T00:32:36.365Z,49.56
2023-02-25T00:33:36.317Z,49.95
2023-02-25T00:34:36.299Z,49.43
2023-02-25T00:35:36.288Z,49.43
2023-02-25T00:36:36.304Z,49.23
2023-02-25T00:37:36.300Z,49.68
2023-02-25T00:38:36.275Z,49.61
2023-02-25T00:39:36.282Z,49.33
2023-02-25T00:40:36.270Z,49.24
2023-02-25T00:41:36.249Z,49.85
2023-02-25T00:42:36.266Z,49.17
2023-02-25T00:43:36.244Z,48.71
2023-02-25T00:44:36.233Z,48.80
2023-02-25T00:45:36.219Z,49.14
2023-02-25T00:46:36.268Z,50.28
2023-02-25T00:47:36.221Z,49.99
2023-02-25T00:48:36.193Z,49.78
2023-02-25T00:49:36.192Z,50.63
2023-02-25T00:50:36.197Z,49.15
2023-02-25T00:51:36.178Z,49.74
2023-02-25T00:52:36.195Z,49.69
2023-02-25T00:53:36.167Z,49.62
2023-02-25T00:54:36.169Z,49.49
2023-02-25T00:55:36.148Z,49.40
2023-02-25T00:56:36.144Z,49.50
2023-02-25T00:57:36.153Z,49.71
2023-02-25T00:58:36.144Z,50.25
2023-02-25T00:59:36.123Z,49.27
2023-02-25T01:00:49.999Z,49.11
2023-02-25T01:01:38.201Z,49.23
2023-02-25T01:02:36.246Z,49.30
2023-02-25T01:03:36.104Z,49.25
2023-02-25T01:04:36.107Z,49.19
2023-02-25T01:05:36.097Z,49.40
2023-02-25T01:06:36.099Z,49.34
2023-02-25T01:07:36.076Z,49.08
2023-02-25T01:08:36.060Z,49.10
2023-02-25T01:09:36.054Z,49.01
2023-02-25T01:10:36.049Z,49.42
2023-02-25T01:11:36.039Z,49.47
2023-02-25T01:12:36.054Z,49.41
2023-02-25T01:13:36.032Z,49.66
2023-02-25T01:14:36.025Z,49.39
2023-02-25T01:15:36.019Z,49.57
2023-02-25T01:16:36.151Z,49.28
2023-02-25T01:17:36.017Z,49.13
2023-02-25T01:18:35.991Z,49.59
2023-02-25T01:19:35.976Z,49.40
2023-02-25T01:20:35.963Z,49.08
2023-02-25T01:21:36.970Z,49.39
2023-02-25T01:22:35.978Z,49.77
2023-02-25T01:23:35.952Z,49.64
2023-02-25T01:24:35.953Z,49.46
2023-02-25T01:25:35.941Z,49.92
2023-02-25T01:26:36.071Z,49.18
2023-02-25T01:27:35.941Z,49.45
2023-02-25T01:28:35.923Z,49.53
2023-02-25T01:29:35.919Z,49.59
2023-02-25T01:30:35.957Z,49.56
2023-02-25T01:31:36.080Z,50.04
2023-02-25T01:32:36.023Z,50.14
2023-02-25T01:33:35.888Z,49.95
2023-02-25T01:34:35.872Z,49.66
2023-02-25T01:35:35.872Z,49.20
2023-02-25T01:36:35.864Z,49.19
2023-02-25T01:37:35.871Z,49.13
2023-02-25T01:38:35.853Z,49.21
2023-02-25T01:39:35.862Z,49.96
2023-02-25T01:40:35.840Z,49.59
2023-02-25T01:41:35.846Z,49.37
2023-02-25T01:42:35.860Z,49.56
2023-02-25T01:43:35.912Z,49.43
2023-02-25T01:44:35.896Z,49.64
2023-02-25T01:45:35.820Z,49.77
2023-02-25T01:46:35.851Z,49.70
2023-02-25T01:47:35.844Z,49.62
2023-02-25T01:48:35.822Z,49.42
2023-02-25T01:49:35.785Z,49.89
2023-02-25T01:50:35.774Z,49.75
2023-02-25T01:51:35.771Z,49.43
2023-02-25T01:52:35.775Z,49.90
2023-02-25T01:53:35.781Z,48.70
2023-02-25T01:54:35.756Z,48.59
2023-02-25T01:55:35.744Z,49.27
2023-02-25T01:56:35.737Z,49.92
2023-02-25T01:57:35.746Z,49.89
2023-02-25T01:58:35.752Z,50.31
2023-02-25T01:59:35.742Z,49.47
2023-02-25T02:00:35.858Z,49.48
2023-02-25T02:01:35.705Z,49.17
2023-02-25T02:02:35.733Z,49.20
2023-02-25T02:03:35.700Z,49.77
2023-02-25T02:04:35.678Z,49.76
2023-02-25T02:05:35.683Z,50.17
2023-02-25T02:06:35.669Z,49.75
2023-02-25T02:07:35.664Z,49.34
2023-02-25T02:08:35.681Z,49.30
2023-02-25T02:09:35.668Z,49.76
2023-02-25T02:10:35.640Z,49.60
2023-02-25T02:11:35.628Z,49.76
2023-02-25T02:12:35.635Z,50.15
2023-02-25T02:13:35.646Z,49.63
2023-02-25T02:14:35.619Z,49.35
2023-02-25T02:15:35.605Z,49.42
2023-02-25T02:16:35.639Z,49.31
2023-02-25T02:17:35.608Z,49.76
2023-02-25T02:18:35.595Z,49.42
2023-02-25T02:19:35.581Z,49.68
2023-02-25T02:20:35.564Z,49.43
2023-02-25T02:21:35.560Z,49.89
2023-02-25T02:22:35.572Z,49.71
2023-02-25T02:23:35.551Z,49.58
2023-02-25T02:24:35.546Z,49.55
2023-02-25T02:25:35.540Z,49.15
2023-02-25T02:26:35.529Z,49.05
2023-02-25T02:27:35.548Z,49.82
2023-02-25T02:28:35.528Z,49.47
2023-02-25T02:29:35.501Z,49.19
2023-02-25T02:30:35.566Z,49.32
2023-02-25T02:31:35.537Z,49.48
2023-02-25T02:32:35.644Z,49.42
2023-02-25T02:33:35.475Z,49.19
2023-02-25T02:34:35.480Z,49.22
2023-02-25T02:35:35.480Z,49.90
2023-02-25T02:36:35.481Z,49.76
2023-02-25T02:37:35.453Z,49.76
2023-02-25T02:38:36.461Z,49.76
2023-02-25T02:39:35.435Z,49.40
2023-02-25T02:40:35.429Z,49.51
2023-02-25T02:41:35.428Z,49.64
2023-02-25T02:42:35.421Z,49.64
2023-02-25T02:43:35.451Z,49.79
2023-02-25T02:44:35.401Z,49.69
2023-02-25T02:45:36.444Z,49.48
2023-02-25T02:46:35.399Z,49.84
2023-02-25T02:47:35.393Z,49.84
2023-02-25T02:48:35.412Z,50.17
2023-02-25T02:49:35.362Z,49.56
2023-02-25T02:50:35.355Z,49.59
2023-02-25T02:51:35.349Z,49.58
2023-02-25T02:52:35.355Z,49.88
2023-02-25T02:53:35.354Z,50.05
2023-02-25T02:54:35.334Z,49.54
2023-02-25T02:55:35.333Z,49.33
2023-02-25T02:56:35.304Z,49.62
2023-02-25T02:57:35.319Z,49.58
2023-02-25T02:58:35.323Z,49.24
2023-02-25T02:59:35.324Z,48.71
2023-02-25T03:00:35.282Z,50.10
2023-02-25T03:01:35.357Z,50.39
2023-02-25T03:02:35.300Z,49.60
2023-02-25T03:03:35.381Z,49.34
2023-02-25T03:04:35.261Z,49.30
2023-02-25T03:05:35.253Z,49.23
2023-02-25T03:06:35.256Z,49.52
2023-02-25T03:07:35.233Z,50.05
2023-02-25T03:08:35.247Z,50.27
2023-02-25T03:09:35.222Z,49.67
2023-02-25T03:10:35.216Z,50.04
2023-02-25T03:11:35.202Z,49.69
2023-02-25T03:12:35.201Z,49.87
2023-02-25T03:13:35.211Z,49.85
2023-02-25T03:14:35.187Z,49.44
2023-02-25T03:15:35.181Z,49.63
2023-02-25T03:16:35.221Z,49.45
2023-02-25T03:17:35.165Z,49.59
2023-02-25T03:18:36.585Z,49.51
2023-02-25T03:19:35.149Z,49.52
2023-02-25T03:20:35.161Z,49.45
2023-02-25T03:21:35.147Z,49.46
2023-02-25T03:22:35.136Z,50.75
2023-02-25T03:23:35.178Z,49.53
2023-02-25T03:24:35.130Z,49.50
2023-02-25T03:25:35.117Z,49.33
2023-02-25T03:26:35.125Z,49.87
2023-02-25T03:27:35.105Z,50.56
2023-02-25T03:28:35.129Z,49.88
2023-02-25T03:29:35.092Z,49.61
2023-02-25T03:30:35.174Z,50.52
2023-02-25T03:31:36.100Z,50.95
2023-02-25T03:32:37.345Z,50.43
2023-02-25T03:33:36.092Z,49.24
2023-02-25T03:34:35.061Z,49.74
2023-02-25T03:35:35.064Z,49.25
2023-02-25T03:36:35.047Z,49.53
2023-02-25T03:37:35.048Z,48.94
2023-02-25T03:38:35.052Z,49.39
2023-02-25T03:39:35.025Z,49.64
2023-02-25T03:40:35.018Z,49.59
2023-02-25T03:41:35.011Z,49.80
2023-02-25T03:42:35.011Z,50.24
2023-02-25T03:43:35.034Z,50.01
2023-02-25T03:44:35.005Z,50.02
2023-02-25T03:45:35.001Z,49.62
2023-02-25T03:46:34.986Z,49.57
2023-02-25T03:47:34.967Z,49.62
2023-02-25T03:48:34.997Z,49.60
2023-02-25T03:49:34.994Z,49.56
2023-02-25T03:50:34.971Z,49.47
2023-02-25T03:51:34.963Z,50.00
2023-02-25T03:52:34.953Z,49.63
2023-02-25T03:53:35.382Z,49.35
2023-02-25T03:54:35.951Z,49.57
2023-02-25T03:55:34.929Z,49.54
2023-02-25T03:56:34.919Z,49.57
2023-02-25T03:57:34.900Z,49.54
2023-02-25T03:58:34.915Z,49.51
2023-02-25T03:59:34.892Z,49.53
2023-02-25T04:00:34.883Z,49.83
2023-02-25T04:01:34.890Z,49.99
2023-02-25T04:02:34.974Z,50.04
2023-02-25T04:03:34.881Z,49.45
2023-02-25T04:04:34.918Z,49.74
2023-02-25T04:05:34.848Z,49.55
2023-02-25T04:06:34.836Z,49.72
2023-02-25T04:07:34.837Z,49.62
2023-02-25T04:08:34.838Z,49.70
2023-02-25T04:09:34.823Z,49.74
2023-02-25T04:10:34.817Z,49.52
2023-02-25T04:11:34.801Z,49.41
2023-02-25T04:12:34.815Z,50.05
2023-02-25T04:13:34.805Z,49.95
2023-02-25T04:14:34.787Z,49.75
2023-02-25T04:15:34.838Z,49.82
2023-02-25T04:16:34.794Z,49.76
2023-02-25T04:17:34.764Z,49.92
2023-02-25T04:18:34.869Z,50.63
2023-02-25T04:19:34.752Z,50.20
2023-02-25T04:20:34.745Z,50.14
2023-02-25T04:21:34.741Z,50.29
2023-02-25T04:22:34.743Z,49.99
2023-02-25T04:23:34.751Z,50.22
2023-02-25T04:24:34.712Z,50.16
2023-02-25T04:25:34.718Z,49.95
2023-02-25T04:26:34.697Z,49.77
2023-02-25T04:27:34.691Z,49.83
2023-02-25T04:28:34.702Z,49.93
2023-02-25T04:29:34.680Z,49.45
2023-02-25T04:30:34.762Z,49.62
2023-02-25T04:31:34.846Z,49.35
2023-02-25T04:32:34.718Z,49.35
2023-02-25T04:33:34.672Z,51.56
2023-02-25T04:34:34.644Z,51.24
2023-02-25T04:35:34.648Z,49.65
2023-02-25T04:36:34.625Z,49.64
2023-02-25T04:37:34.626Z,49.84
2023-02-25T04:38:34.638Z,49.89
2023-02-25T04:39:34.605Z,50.02
2023-02-25T04:40:34.601Z,49.86
2023-02-25T04:41:34.596Z,49.85
2023-02-25T04:42:34.604Z,49.40
2023-02-25T04:43:34.603Z,49.55
2023-02-25T04:44:34.598Z,49.95
2023-02-25T04:45:34.560Z,49.69
2023-02-25T04:46:34.720Z,49.65
2023-02-25T04:47:34.587Z,49.74
2023-02-25T04:48:34.608Z,49.76
2023-02-25T04:49:34.542Z,49.51
2023-02-25T04:50:34.535Z,49.44
2023-02-25T04:51:34.536Z,49.89
2023-02-25T04:52:34.570Z,49.76
2023-02-25T04:53:34.561Z,49.70
2023-02-25T04:54:34.543Z,49.73
2023-02-25T04:55:34.511Z,49.68
2023-02-25T04:56:34.524Z,49.59
2023-02-25T04:57:34.509Z,49.80
2023-02-25T04:58:34.758Z,50.53
2023-02-25T04:59:34.475Z,50.37
2023-02-25T05:00:34.524Z,49.61
2023-02-25T05:01:34.489Z,49.57
2023-02-25T05:02:34.460Z,50.29
2023-02-25T05:03:34.463Z,49.74
2023-02-25T05:04:34.471Z,49.72
2023-02-25T05:05:34.440Z,49.53
2023-02-25T05:06:34.422Z,49.62
2023-02-25T05:07:34.423Z,49.78
2023-02-25T05:08:34.425Z,49.49
2023-02-25T05:09:34.402Z,50.04
2023-02-25T05:10:34.405Z,49.80
2023-02-25T05:11:34.396Z,49.73
2023-02-25T05:12:34.383Z,49.68
2023-02-25T05:13:34.406Z,49.41
2023-02-25T05:14:34.377Z,49.67
2023-02-25T05:15:34.372Z,49.51
2023-02-25T05:16:34.424Z,49.82
2023-02-25T05:17:34.350Z,50.12
2023-02-25T05:18:34.379Z,49.53
2023-02-25T05:19:34.335Z,48.92
2023-02-25T05:20:34.410Z,49.24
2023-02-25T05:21:34.340Z,49.36
2023-02-25T05:22:34.365Z,49.84
2023-02-25T05:23:34.346Z,49.64
2023-02-25T05:24:34.330Z,49.71
2023-02-25T05:25:35.333Z,49.45
2023-02-25T05:26:34.331Z,50.12
2023-02-25T05:27:34.289Z,50.07
2023-02-25T05:28:34.345Z,50.01
2023-02-25T05:29:34.342Z,49.97
2023-02-25T05:30:34.317Z,49.58
2023-02-25T05:31:34.391Z,50.03
2023-02-25T05:32:34.478Z,49.41
2023-02-25T05:33:34.262Z,49.93
2023-02-25T05:34:34.234Z,50.02
2023-02-25T05:35:34.245Z,50.56
2023-02-25T05:36:34.245Z,50.23
2023-02-25T05:37:34.218Z,50.11
2023-02-25T05:38:34.225Z,50.19
2023-02-25T05:39:34.198Z,49.67
2023-02-25T05:40:34.189Z,49.63
2023-02-25T05:41:34.186Z,49.67
2023-02-25T05:42:34.178Z,50.26
2023-02-25T05:43:34.341Z,50.66
2023-02-25T05:44:34.193Z,50.45
2023-02-25T05:45:34.268Z,50.40
2023-02-25T05:46:34.200Z,49.52
2023-02-25T05:47:34.177Z,49.24
2023-02-25T05:48:34.150Z,49.33
2023-02-25T05:49:34.153Z,49.59
2023-02-25T05:50:34.172Z,49.49
2023-02-25T05:51:34.112Z,49.65
2023-02-25T05:52:34.180Z,49.57
2023-02-25T05:53:34.129Z,49.90
2023-02-25T05:54:34.103Z,49.36
2023-02-25T05:55:34.093Z,48.97
2023-02-25T05:56:34.084Z,49.59
2023-02-25T05:57:34.077Z,49.24
2023-02-25T05:58:34.092Z,49.59
2023-02-25T05:59:34.066Z,49.63
2023-02-25T06:00:34.068Z,49.39
2023-02-25T06:01:34.090Z,49.22
2023-02-25T06:02:34.089Z,49.72
2023-02-25T06:03:34.227Z,49.43
2023-02-25T06:04:34.098Z,49.96
2023-02-25T06:05:34.022Z,50.40
2023-02-25T06:06:34.024Z,49.43
2023-02-25T06:07:34.015Z,50.20
2023-02-25T06:08:34.322Z,49.44
2023-02-25T06:09:34.004Z,49.51
2023-02-25T06:10:34.045Z,49.63
2023-02-25T06:11:33.981Z,49.81
2023-02-25T06:12:33.996Z,49.45
2023-02-25T06:13:34.010Z,49.39
2023-02-25T06:14:33.966Z,48.89
2023-02-25T06:15:33.966Z,49.44
2023-02-25T06:16:33.994Z,50.57
2023-02-25T06:17:33.953Z,49.75
2023-02-25T06:18:33.935Z,49.11
2023-02-25T06:19:33.951Z,49.51
2023-02-25T06:20:34.022Z,49.48
2023-02-25T06:21:33.945Z,49.73
2023-02-25T06:22:33.925Z,49.61
2023-02-25T06:23:33.911Z,49.31
2023-02-25T06:24:33.966Z,49.83
2023-02-25T06:25:33.893Z,50.82
2023-02-25T06:26:33.897Z,50.19
2023-02-25T06:27:34.928Z,50.40
2023-02-25T06:28:33.870Z,49.71
2023-02-25T06:29:33.892Z,50.34
2023-02-25T06:30:33.888Z,52.29
2023-02-25T06:31:33.877Z,51.82
2023-02-25T06:32:34.058Z,50.91
2023-02-25T06:33:33.846Z,49.95
2023-02-25T06:34:33.852Z,50.09
2023-02-25T06:35:33.828Z,51.01
2023-02-25T06:36:33.850Z,51.28
2023-02-25T06:37:33.811Z,50.39
2023-02-25T06:38:34.048Z,51.03
2023-02-25T06:39:33.837Z,50.71
2023-02-25T06:40:33.793Z,50.79
2023-02-25T06:41:33.790Z,50.80
2023-02-25T06:42:33.777Z,51.18
2023-02-25T06:43:34.353Z,50.44
2023-02-25T06:44:33.894Z,50.28
2023-02-25T06:45:33.758Z,50.52
2023-02-25T06:46:33.779Z,50.64
2023-02-25T06:47:33.745Z,49.97
2023-02-25T06:48:33.925Z,49.95
2023-02-25T06:49:33.762Z,50.39
2023-02-25T06:50:33.747Z,50.93
2023-02-25T06:51:33.757Z,49.90
2023-02-25T06:52:33.766Z,49.60
2023-02-25T06:53:33.806Z,49.87
2023-02-25T06:54:33.737Z,49.97
2023-02-25T06:55:33.701Z,49.62
2023-02-25T06:56:33.742Z,49.59
2023-02-25T06:57:33.703Z,49.92
2023-02-25T06:58:34.759Z,50.60
2023-02-25T06:59:33.703Z,50.32
2023-02-25T07:00:33.668Z,50.50
2023-02-25T07:01:33.724Z,50.53
2023-02-25T07:02:33.735Z,50.86
2023-02-25T07:03:33.677Z,51.09
2023-02-25T07:04:33.689Z,50.95
2023-02-25T07:05:33.624Z,50.74
2023-02-25T07:06:34.644Z,50.62
2023-02-25T07:07:33.616Z,49.91
2023-02-25T07:08:33.612Z,50.07
2023-02-25T07:09:33.622Z,50.96
2023-02-25T07:10:33.598Z,52.22
2023-02-25T07:11:33.639Z,51.43
2023-02-25T07:12:33.601Z,50.84
2023-02-25T07:13:33.585Z,50.61
2023-02-25T07:14:33.592Z,50.62
2023-02-25T07:15:33.625Z,51.17
2023-02-25T07:16:33.602Z,49.93
2023-02-25T07:17:33.663Z,49.83
2023-02-25T07:18:33.592Z,50.02
2023-02-25T07:19:33.725Z,49.96
2023-02-25T07:20:33.752Z,50.01
2023-02-25T07:21:33.561Z,49.75
2023-02-25T07:22:33.628Z,49.76
2023-02-25T07:23:33.603Z,49.87
2023-02-25T07:24:33.619Z,50.60
2023-02-25T07:25:33.728Z,50.27
2023-02-25T07:26:33.493Z,51.29
2023-02-25T07:27:33.514Z,52.23
2023-02-25T07:28:33.492Z,50.43
2023-02-25T07:29:33.498Z,50.93
2023-02-25T07:30:33.454Z,50.26
2023-02-25T07:31:33.547Z,50.74
2023-02-25T07:32:33.619Z,50.57
2023-02-25T07:33:33.506Z,50.66
2023-02-25T07:34:34.521Z,50.30
2023-02-25T07:35:33.430Z,50.57
2023-02-25T07:36:33.421Z,51.06
2023-02-25T07:37:33.447Z,50.56
2023-02-25T07:38:33.408Z,50.18
2023-02-25T07:39:33.422Z,50.35
2023-02-25T07:40:33.398Z,50.61
2023-02-25T07:41:33.392Z,50.63
2023-02-25T07:42:33.379Z,50.79
2023-02-25T07:43:33.377Z,50.42
2023-02-25T07:44:33.394Z,51.11
2023-02-25T07:45:33.363Z,51.22
2023-02-25T07:46:33.422Z,50.98
2023-02-25T07:47:33.362Z,51.13
2023-02-25T07:48:33.812Z,50.90
2023-02-25T07:49:33.349Z,51.01
2023-02-25T07:50:33.338Z,50.33
2023-02-25T07:51:33.319Z,50.01
2023-02-25T07:52:33.320Z,50.39
2023-02-25T07:53:33.294Z,50.26
2023-02-25T07:54:34.453Z,50.38
2023-02-25T07:55:33.292Z,53.82
2023-02-25T07:56:33.286Z,50.38
2023-02-25T07:57:33.326Z,50.87
2023-02-25T07:58:33.334Z,50.59
2023-02-25T07:59:33.281Z,51.15
2023-02-25T08:00:33.256Z,51.09
2023-02-25T08:01:33.237Z,52.33
2023-02-25T08:02:33.366Z,50.32
2023-02-25T08:03:33.231Z,50.75
2023-02-25T08:04:33.317Z,51.31
2023-02-25T08:05:33.234Z,49.63
2023-02-25T08:06:33.681Z,50.94
2023-02-25T08:07:33.352Z,50.95
2023-02-25T08:08:33.208Z,51.35
2023-02-25T08:09:33.206Z,51.95
2023-02-25T08:10:33.187Z,50.59
2023-02-25T08:11:33.186Z,50.88
2023-02-25T08:12:33.185Z,51.21
2023-02-25T08:13:33.169Z,51.40
2023-02-25T08:14:33.211Z,51.14
2023-02-25T08:15:33.167Z,50.77
2023-02-25T08:16:33.153Z,51.60
2023-02-25T08:17:33.169Z,51.76
2023-02-25T08:18:33.135Z,50.99
2023-02-25T08:19:33.150Z,50.03
2023-02-25T08:20:33.121Z,50.48
2023-02-25T08:21:33.111Z,50.81
2023-02-25T08:22:33.116Z,51.99
2023-02-25T08:23:33.124Z,52.32
2023-02-25T08:24:33.114Z,50.68
2023-02-25T08:25:33.092Z,50.80
2023-02-25T08:26:33.065Z,51.81
2023-02-25T08:27:33.068Z,51.95
2023-02-25T08:28:35.423Z,50.93
2023-02-25T08:29:34.076Z,51.54
2023-02-25T08:30:33.204Z,51.52
2023-02-25T08:31:33.144Z,51.34
2023-02-25T08:32:33.136Z,51.36
2023-02-25T08:33:33.041Z,51.33
2023-02-25T08:34:33.014Z,52.41
2023-02-25T08:35:33.033Z,52.63
2023-02-25T08:36:33.005Z,50.50
2023-02-25T08:37:32.991Z,52.74
2023-02-25T08:38:33.007Z,53.51
2023-02-25T08:39:33.006Z,52.98
2023-02-25T08:40:32.970Z,51.60
2023-02-25T08:41:32.972Z,52.70
2023-02-25T08:42:32.970Z,52.20
2023-02-25T08:43:32.954Z,52.99
2023-02-25T08:44:32.963Z,52.02
2023-02-25T08:45:32.964Z,50.85
2023-02-25T08:46:33.043Z,50.04
2023-02-25T08:47:32.929Z,50.94
2023-02-25T08:48:32.916Z,51.36
2023-02-25T08:49:32.932Z,50.52
2023-02-25T08:50:32.904Z,51.29
2023-02-25T08:51:32.897Z,50.31
2023-02-25T08:52:32.891Z,51.00
2023-02-25T08:53:32.883Z,51.24
2023-02-25T08:54:32.940Z,52.18
2023-02-25T08:55:32.866Z,52.94
2023-02-25T08:56:32.921Z,51.79
2023-02-25T08:57:32.926Z,50.59
2023-02-25T08:58:32.904Z,52.53
2023-02-25T08:59:33.091Z,52.29
2023-02-25T09:00:32.866Z,51.03
2023-02-25T09:01:32.836Z,53.22
2023-02-25T09:02:32.815Z,52.72
2023-02-25T09:03:32.811Z,51.13
2023-02-25T09:04:32.885Z,50.70
2023-02-25T09:05:32.788Z,51.78
2023-02-25T09:06:32.795Z,49.97
2023-02-25T09:07:32.819Z,49.41
2023-02-25T09:08:32.786Z,49.05
2023-02-25T09:09:32.797Z,50.76
2023-02-25T09:10:48.171Z,51.73
2023-02-25T09:11:34.762Z,52.79
2023-02-25T09:12:32.747Z,49.87
2023-02-25T09:13:32.739Z,50.35
2023-02-25T09:14:32.763Z,50.90
2023-02-25T09:15:32.728Z,50.33
2023-02-25T09:16:32.749Z,50.88
2023-02-25T09:17:32.705Z,51.25
2023-02-25T09:18:32.697Z,50.18
2023-02-25T09:19:32.713Z,51.50
2023-02-25T09:20:32.716Z,51.01
2023-02-25T09:21:32.685Z,49.69
2023-02-25T09:22:32.687Z,50.82
2023-02-25T09:23:32.676Z,50.17
2023-02-25T09:24:32.655Z,50.41
2023-02-25T09:25:32.681Z,53.44
2023-02-25T09:26:32.649Z,51.68
2023-02-25T09:27:32.771Z,49.41
2023-02-25T09:28:32.643Z,50.55
2023-02-25T09:29:32.631Z,51.01
2023-02-25T09:30:32.635Z,51.04
2023-02-25T09:31:32.834Z,51.04
2023-02-25T09:32:32.728Z,50.46
2023-02-25T09:33:32.599Z,51.99
2023-02-25T09:34:32.592Z,51.23
2023-02-25T09:35:32.637Z,50.51
2023-02-25T09:36:32.633Z,50.94
2023-02-25T09:37:32.573Z,50.80
2023-02-25T09:38:32.567Z,49.09
2023-02-25T09:39:32.577Z,50.54
2023-02-25T09:40:32.572Z,52.15
2023-02-25T09:41:32.565Z,51.83
2023-02-25T09:42:32.538Z,50.14
2023-02-25T09:43:32.529Z,49.44
2023-02-25T09:44:32.529Z,47.91
2023-02-25T09:45:32.561Z,47.67
2023-02-25T09:46:32.523Z,49.57
2023-02-25T09:47:32.614Z,52.34
2023-02-25T09:48:32.502Z,52.47
2023-02-25T09:49:32.490Z,52.76
2023-02-25T09:50:32.515Z,52.68
2023-02-25T09:51:32.481Z,51.51
2023-02-25T09:52:32.479Z,51.96
2023-02-25T09:53:32.470Z,52.74
2023-02-25T09:54:32.473Z,53.68
2023-02-25T09:55:33.471Z,52.63
2023-02-25T09:56:32.451Z,53.03
2023-02-25T09:57:32.447Z,53.24
2023-02-25T09:58:32.435Z,53.35
2023-02-25T09:59:32.431Z,52.64
2023-02-25T10:00:32.435Z,52.44
2023-02-25T10:01:32.416Z,52.87
2023-02-25T10:02:32.482Z,52.74
2023-02-25T10:03:32.449Z,52.81
2023-02-25T10:04:32.391Z,53.04
2023-02-25T10:05:32.405Z,52.74
2023-02-25T10:06:32.398Z,53.14
2023-02-25T10:07:32.380Z,52.00
2023-02-25T10:08:32.360Z,53.26
2023-02-25T10:09:33.371Z,54.06
2023-02-25T10:10:32.369Z,52.80
2023-02-25T10:11:32.342Z,52.22
2023-02-25T10:12:32.346Z,50.77
2023-02-25T10:13:32.333Z,51.28
2023-02-25T10:14:32.325Z,51.76
2023-02-25T10:15:32.369Z,51.71
2023-02-25T10:16:32.360Z,50.44
2023-02-25T10:17:32.304Z,51.51
2023-02-25T10:18:32.288Z,52.52
2023-02-25T10:19:32.293Z,51.00
2023-02-25T10:20:32.305Z,50.21
2023-02-25T10:21:32.273Z,49.52
2023-02-25T10:22:32.270Z,49.62
2023-02-25T10:23:32.257Z,49.01
2023-02-25T10:24:32.264Z,48.64
2023-02-25T10:25:32.262Z,46.71
2023-02-25T10:26:32.236Z,49.67
2023-02-25T10:27:33.241Z,50.41
2023-02-25T10:28:33.224Z,49.81
2023-02-25T10:29:32.217Z,48.12
2023-02-25T10:30:32.313Z,47.29
2023-02-25T10:31:32.326Z,49.64
2023-02-25T10:32:32.252Z,50.24
2023-02-25T10:33:32.189Z,50.03
2023-02-25T10:34:32.187Z,52.43
2023-02-25T10:35:32.214Z,50.22
2023-02-25T10:36:32.164Z,49.33
2023-02-25T10:37:32.167Z,47.18
2023-02-25T10:38:32.162Z,46.86
2023-02-25T10:39:32.158Z,47.87
2023-02-25T10:40:32.164Z,49.85
2023-02-25T10:41:32.142Z,49.64
2023-02-25T10:42:32.127Z,49.59
2023-02-25T10:43:32.124Z,50.47
2023-02-25T10:44:32.121Z,48.62
2023-02-25T10:45:32.123Z,48.67
2023-02-25T10:46:32.177Z,49.79
2023-02-25T10:47:32.091Z,49.70
2023-02-25T10:48:32.100Z,49.79
2023-02-25T10:49:32.151Z,48.51
2023-02-25T10:50:44.963Z,48.13
2023-02-25T10:51:34.083Z,48.34
2023-02-25T10:52:32.387Z,49.00
2023-02-25T10:53:32.056Z,50.03
2023-02-25T10:54:32.046Z,49.65
2023-02-25T10:55:32.066Z,50.12
2023-02-25T10:56:32.030Z,50.63
2023-02-25T10:57:32.049Z,50.25
2023-02-25T10:58:32.013Z,50.00
2023-02-25T10:59:32.211Z,49.23
2023-02-25T11:00:32.037Z,49.92
2023-02-25T11:01:32.010Z,49.24
2023-02-25T11:02:32.665Z,49.82
2023-02-25T11:03:31.989Z,49.31
2023-02-25T11:04:31.976Z,50.20
2023-02-25T11:05:31.999Z,50.48
2023-02-25T11:06:32.001Z,50.82
2023-02-25T11:07:31.956Z,51.19
2023-02-25T11:08:31.956Z,52.27
2023-02-25T11:09:31.942Z,51.50
2023-02-25T11:10:31.957Z,51.50
2023-02-25T11:11:32.493Z,50.70
2023-02-25T11:12:32.918Z,52.94
2023-02-25T11:13:31.908Z,49.68
2023-02-25T11:14:31.907Z,49.45
2023-02-25T11:15:44.300Z,47.81
2023-02-25T11:16:33.966Z,46.94
2023-02-25T11:17:31.883Z,44.71
2023-02-25T11:18:31.941Z,46.22
2023-02-25T11:19:31.877Z,46.62
2023-02-25T11:20:31.892Z,48.63
2023-02-25T11:21:31.868Z,48.16
2023-02-25T11:22:31.856Z,46.55
2023-02-25T11:23:31.842Z,45.61
2023-02-25T11:24:32.833Z,44.86
2023-02-25T11:25:31.858Z,47.39
2023-02-25T11:26:31.822Z,50.54
2023-02-25T11:27:31.827Z,48.81
2023-02-25T11:28:31.813Z,50.76
2023-02-25T11:29:31.805Z,50.98
2023-02-25T11:30:31.892Z,52.63
2023-02-25T11:31:31.905Z,53.33
2023-02-25T11:32:31.865Z,53.42
2023-02-25T11:33:31.778Z,54.36
2023-02-25T11:34:31.785Z,54.80
2023-02-25T11:35:31.816Z,53.76
2023-02-25T11:36:31.758Z,52.35
2023-02-25T11:37:31.737Z,51.36
2023-02-25T11:38:31.733Z,52.05
2023-02-25T11:39:31.742Z,53.08
2023-02-25T11:40:31.764Z,51.66
2023-02-25T11:41:31.734Z,51.33
2023-02-25T11:42:31.731Z,51.71
2023-02-25T11:43:31.743Z,50.22
2023-02-25T11:44:31.757Z,50.21
2023-02-25T11:45:31.690Z,50.64
2023-02-25T11:46:31.725Z,50.74
2023-02-25T11:47:31.701Z,50.62
2023-02-25T11:48:31.668Z,50.84
2023-02-25T11:49:31.666Z,50.24
2023-02-25T11:50:31.693Z,49.56
2023-02-25T11:51:31.663Z,50.19
2023-02-25T11:52:31.653Z,51.03
2023-02-25T11:53:31.703Z,50.20
2023-02-25T11:54:31.640Z,50.66
2023-02-25T11:55:31.622Z,49.33
2023-02-25T11:56:31.627Z,50.98
2023-02-25T11:57:31.604Z,50.49
2023-02-25T11:58:31.622Z,49.59
2023-02-25T11:59:31.608Z,49.94
2023-02-25T12:00:31.588Z,48.36
2023-02-25T12:01:31.608Z,48.13
2023-02-25T12:02:31.602Z,49.97
2023-02-25T12:03:31.567Z,47.06
2023-02-25T12:04:31.556Z,46.11
2023-02-25T12:05:31.637Z,49.94
2023-02-25T12:06:31.581Z,50.34
2023-02-25T12:07:31.542Z,49.82
2023-02-25T12:08:31.531Z,53.32
2023-02-25T12:09:31.515Z,48.48
2023-02-25T12:10:32.670Z,48.83
2023-02-25T12:11:31.554Z,49.23
2023-02-25T12:12:31.500Z,49.39
2023-02-25T12:13:31.522Z,49.74
2023-02-25T12:14:31.492Z,49.22
2023-02-25T12:15:31.492Z,50.77
2023-02-25T12:16:31.525Z,51.21
2023-02-25T12:17:31.480Z,51.52
2023-02-25T12:18:31.470Z,51.62
2023-02-25T12:19:31.481Z,50.69
2023-02-25T12:20:31.450Z,51.51
2023-02-25T12:21:31.473Z,52.12
2023-02-25T12:22:31.436Z,50.30
2023-02-25T12:23:31.428Z,50.69
2023-02-25T12:24:31.422Z,50.70
2023-02-25T12:25:31.425Z,51.05
2023-02-25T12:26:31.485Z,50.38
2023-02-25T12:27:31.404Z,50.21
2023-02-25T12:28:31.404Z,51.26
2023-02-25T12:29:31.393Z,50.82
2023-02-25T12:30:31.422Z,51.96
2023-02-25T12:31:31.465Z,51.19
2023-02-25T12:32:31.410Z,50.10
2023-02-25T12:33:31.368Z,52.05
2023-02-25T12:34:31.358Z,50.88
2023-02-25T12:35:31.364Z,51.70
2023-02-25T12:36:31.368Z,51.51
2023-02-25T12:37:31.342Z,52.02
2023-02-25T12:38:33.563Z,52.80
2023-02-25T12:39:32.320Z,54.30
2023-02-25T12:40:31.319Z,51.08
2023-02-25T12:41:32.330Z,54.33
2023-02-25T12:42:31.309Z,52.09
2023-02-25T12:43:31.312Z,51.17
2023-02-25T12:44:31.283Z,51.32
2023-02-25T12:45:31.300Z,53.03
2023-02-25T12:46:31.272Z,51.87
2023-02-25T12:47:31.283Z,50.90
2023-02-25T12:48:31.272Z,51.98
2023-02-25T12:49:32.258Z,50.22
2023-02-25T12:50:31.250Z,50.59
2023-02-25T12:51:31.269Z,50.55
2023-02-25T12:52:31.236Z,50.12